Weather at Nashville International Airport

Public forecast

Using degrees Fahrenheit for public forecast. Weather courtesy of forecast.io.

Current aviation weather report (METAR) for Nashville International Airport

Retrieved 2021/09/26 23:53 UTC (40 minutes ago):

KBNA 262353Z 27003KT 10SM CLR 22/11 A3008 RMK AO2 SLP182 T02170111 10278 20217 56005

Aviation forecast (TAF) for Nashville International Airport

Retrieved 2021-09-27 00:36 UTC (0 seconds ago):

TAF KBNA 262333Z 2700/2724 19003KT P6SM SKC FM271400 21008KT P6SM SKC